Time;durP1;ratioP1;P1;durP2;ratioP2;P2;SDS_P1;SDS_P2;PMS_P1;PMS_P2;Temp;Humidity;BMP_temperature;BMP_pressure;BME280_temperature;BME280_humidity;BME280_pressure;Samples;Min_cycle;Max_cycle;Signal;HPM_P1;HPM_P2
2022/10/22 00:01:15;;;;;;;4.97;4.70;;;;;;;-142.65;100.00;50162.81;5113484;28;20212;-69
2022/10/22 00:03:41;;;;;;;4.93;4.73;;;;;;;;;;5113664;28;20174;-68
2022/10/22 00:06:08;;;;;;;6.00;5.40;;;;;;;-142.65;100.00;50176.75;5113810;28;20185;-68
2022/10/22 00:08:34;;;;;;;5.20;5.10;;;;;;;;;;5114496;28;20189;-68
2022/10/22 00:11:12;;;;;;;5.43;5.23;;;;;;;-142.65;100.00;50164.81;5112751;28;20201;-69
2022/10/22 00:13:38;;;;;;;5.37;5.03;;;;;;;-142.65;100.00;50170.78;5110935;28;20216;-69
2022/10/22 00:16:05;;;;;;;6.93;4.57;;;;;;;;;;5113328;28;20250;-68
2022/10/22 00:18:31;;;;;;;5.00;4.70;;;;;;;;;;5113818;28;20181;-68
2022/10/22 00:20:57;;;;;;;4.17;4.07;;;;;;;-142.65;100.00;50174.75;5112928;28;20219;-69
2022/10/22 00:23:24;;;;;;;4.27;4.17;;;;;;;-142.65;100.00;50164.81;5113762;28;20174;-68
2022/10/22 00:25:51;;;;;;;4.90;4.70;;;;;;;-142.65;100.00;50164.81;5113761;28;20185;-68
2022/10/22 00:28:18;;;;;;;5.37;5.10;;;;;;;;;;5114183;28;20566;-68
2022/10/22 00:30:45;;;;;;;5.50;5.20;;;;;;;-142.65;100.00;50118.97;5112441;28;20201;-69
2022/10/22 00:33:11;;;;;;;5.10;5.00;;;;;;;-142.65;100.00;50170.78;5113875;28;20205;-69
2022/10/22 00:35:38;;;;;;;5.07;4.87;;;;;;;-142.65;100.00;50162.81;5113673;28;20196;-69
2022/10/22 00:38:04;;;;;;;5.27;5.00;;;;;;;-142.65;100.00;50170.78;5113894;28;20539;-68
2022/10/22 00:40:30;;;;;;;5.13;5.03;;;;;;;;;;5113179;28;20573;-69
2022/10/22 00:42:57;;;;;;;5.50;5.33;;;;;;;-142.65;100.00;50168.78;5112972;28;20185;-69
2022/10/22 00:45:25;;;;;;;5.37;5.03;;;;;;;-142.65;100.00;50162.81;5113845;28;20546;-69
2022/10/22 00:48:23;;;;;;;5.70;5.40;;;;;;;-142.65;100.00;50164.81;5113513;28;20193;-68
2022/10/22 00:50:55;;;;;;;5.30;5.10;;;;;;;-142.65;100.00;50164.81;5092560;28;20231;-69
2022/10/22 00:53:23;;;;;;;5.57;5.33;;;;;;;;;;5111135;28;20198;-68
2022/10/22 00:55:52;;;;;;;4.80;4.70;;;;;;;-142.65;100.00;50168.78;5113480;28;20189;-68
2022/10/22 00:58:23;;;;;;;5.07;4.80;;;;;;;-142.65;100.00;50174.75;5113725;28;20188;-68
2022/10/22 01:00:49;;;;;;;5.20;5.03;;;;;;;-142.65;100.00;50162.81;5113686;28;20209;-68
2022/10/22 01:03:16;;;;;;;5.60;5.07;;;;;;;;;;5112697;28;20247;-69
2022/10/22 01:05:59;;;;;;;4.87;4.47;;;;;;;;;;5111330;28;20194;-69
2022/10/22 01:08:31;;;;;;;4.80;4.70;;;;;;;;;;5111088;28;20558;-68
2022/10/22 01:11:18;;;;;;;5.00;4.80;;;;;;;-142.65;100.00;50164.81;5113284;28;20209;-68
2022/10/22 01:13:52;;;;;;;4.77;4.57;;;;;;;-142.65;100.00;50168.78;5113292;28;20223;-68
2022/10/22 01:16:36;;;;;;;4.53;4.40;;;;;;;-142.65;100.00;50162.81;5112432;28;20203;-69
2022/10/22 01:19:20;;;;;;;5.20;5.10;;;;;;;-142.65;100.00;50168.78;5117431;28;20196;-69
2022/10/22 01:21:55;;;;;;;4.57;4.37;;;;;;;-142.65;100.00;50170.78;5117095;28;20212;-68
2022/10/22 01:24:35;;;;;;;5.17;4.77;;;;;;;-142.65;100.00;50172.78;5116547;28;20526;-69
2022/10/22 01:27:19;;;;;;;4.80;4.60;;;;;;;-142.65;100.00;50162.81;5117564;28;20184;-69
2022/10/22 01:29:50;;;;;;;4.87;4.73;;;;;;;;;;5117214;28;20173;-69
2022/10/22 01:32:21;;;;;;;5.10;4.90;;;;;;;-142.65;100.00;50168.78;5116786;28;20571;-69
2022/10/22 01:34:52;;;;;;;5.63;5.43;;;;;;;-142.65;100.00;50162.81;5114052;28;20185;-69
2022/10/22 01:37:22;;;;;;;4.70;4.50;;;;;;;-142.65;100.00;50164.81;5116861;28;20185;-69
2022/10/22 01:39:50;;;;;;;4.03;3.93;;;;;;;-142.65;100.00;50168.78;5117326;28;20188;-69
2022/10/22 01:42:17;;;;;;;4.23;3.93;;;;;;;-142.65;100.00;50162.81;5117173;28;20209;-69
2022/10/22 01:44:43;;;;;;;4.07;3.87;;;;;;;;;;5115833;28;20197;-69
2022/10/22 01:47:28;;;;;;;7.47;5.10;;;;;;;-142.65;100.00;50168.78;5116916;28;20181;-69
2022/10/22 01:50:06;;;;;;;4.87;4.47;;;;;;;-142.65;100.00;50174.75;5116876;28;20177;-69
2022/10/22 01:52:54;;;;;;;5.57;5.13;;;;;;;-142.65;100.00;50170.78;5116485;28;20196;-68
2022/10/22 01:55:30;;;;;;;4.77;4.67;;;;;;;-142.65;100.00;50164.81;5115611;28;20185;-69
2022/10/22 01:58:13;;;;;;;5.50;5.10;;;;;;;;;;5116445;28;20173;-69
2022/10/22 02:00:44;;;;;;;4.93;4.67;;;;;;;;;;5116619;28;20571;-69
2022/10/22 02:03:20;;;;;;;9.57;4.70;;;;;;;-142.65;100.00;50168.78;5116641;28;20173;-69
2022/10/22 02:05:55;;;;;;;4.87;4.67;;;;;;;-142.65;100.00;50174.75;5115543;28;20280;-69
2022/10/22 02:08:30;;;;;;;4.20;4.20;;;;;;;-142.65;100.00;50162.81;5116538;28;20183;-68
2022/10/22 02:10:59;;;;;;;5.13;4.83;;;;;;;-142.65;100.00;50170.78;5116483;28;20205;-68
2022/10/22 02:13:27;;;;;;;5.37;5.17;;;;;;;;;;5115977;28;20228;-68
2022/10/22 02:15:54;;;;;;;6.30;5.70;;;;;;;;;;5115298;28;20195;-68
2022/10/22 02:18:22;;;;;;;5.27;5.17;;;;;;;;;;5115997;28;20193;-68
2022/10/22 02:20:49;;;;;;;4.70;4.60;;;;;;;;;;5116451;28;20224;-69
2022/10/22 02:23:15;;;;;;;5.13;5.03;;;;;;;;;;5115893;28;20185;-68
2022/10/22 02:25:45;;;;;;;5.43;5.00;;;;;;;;;;5115275;28;20676;-68
2022/10/22 02:28:14;;;;;;;5.50;5.30;;;;;;;;;;5115606;28;20631;-68
2022/10/22 02:30:45;;;;;;;6.67;5.17;;;;;;;-142.65;100.00;50168.78;5116106;28;20216;-69
2022/10/22 02:33:17;;;;;;;5.07;4.87;;;;;;;;;;5113078;28;20250;-68
2022/10/22 02:35:44;;;;;;;4.93;4.70;;;;;;;;;;5114333;28;20186;-68
2022/10/22 02:38:12;;;;;;;5.17;4.83;;;;;;;-142.65;100.00;50162.81;5114908;28;20189;-68
2022/10/22 02:40:38;;;;;;;4.50;4.40;;;;;;;-142.65;100.00;50170.78;5115527;28;20208;-68
2022/10/22 02:43:05;;;;;;;5.93;5.43;;;;;;;-142.65;100.00;50168.78;5115816;28;20663;-68
2022/10/22 02:45:32;;;;;;;6.13;5.73;;;;;;;;;;5114591;28;20189;-68
2022/10/22 02:47:59;;;;;;;7.73;7.03;;;;;;;-142.65;100.00;50170.78;5115730;28;20188;-68
2022/10/22 02:50:25;;;;;;;6.40;6.10;;;;;;;;;;5115308;28;20220;-69
2022/10/22 02:52:52;;;;;;;7.27;5.93;;;;;;;;;;5115508;28;20215;-69
2022/10/22 02:55:18;;;;;;;5.50;5.40;;;;;;;-142.65;100.00;50170.78;5115339;28;20200;-69
2022/10/22 02:57:44;;;;;;;6.90;6.53;;;;;;;;;;5114195;28;20689;-69
2022/10/22 03:00:11;;;;;;;6.53;6.40;;;;;;;-142.65;100.00;50164.81;5115158;28;20185;-69
2022/10/22 03:02:38;;;;;;;7.10;6.47;;;;;;;;;;5115118;28;20189;-69
2022/10/22 03:05:04;;;;;;;8.03;7.57;;;;;;;-142.65;100.00;50168.78;5113311;28;20194;-69
2022/10/22 03:07:31;;;;;;;6.90;6.50;;;;;;;-142.65;100.00;50162.81;5114581;28;20193;-69
2022/10/22 03:09:57;;;;;;;7.00;6.53;;;;;;;-142.65;100.00;50170.78;5115259;28;20199;-69
2022/10/22 03:12:24;;;;;;;6.47;6.27;;;;;;;-142.65;100.00;50164.81;5115127;28;20695;-69
2022/10/22 03:14:50;;;;;;;6.70;6.33;;;;;;;;;;5113314;28;20217;-69
2022/10/22 03:17:16;;;;;;;6.00;5.73;;;;;;;;;;5113837;28;20558;-69
2022/10/22 03:19:43;;;;;;;5.30;5.20;;;;;;;;;;5115077;28;20189;-69
2022/10/22 03:22:16;;;;;;;6.27;5.97;;;;;;;-142.65;100.00;50170.78;5114694;28;20219;-69
2022/10/22 03:24:49;;;;;;;5.73;5.50;;;;;;;-142.65;100.00;50168.78;5115601;28;20519;-69
2022/10/22 03:27:17;;;;;;;6.43;5.87;;;;;;;;;;5113694;28;20192;-69
2022/10/22 03:29:43;;;;;;;6.83;6.33;;;;;;;-142.65;100.00;50164.81;5114904;28;20185;-69
2022/10/22 03:32:10;;;;;;;6.90;6.30;;;;;;;;;;5113275;28;20197;-69
2022/10/22 03:34:36;;;;;;;6.67;6.27;;;;;;;-142.65;100.00;50164.81;5114471;28;20219;-69
2022/10/22 03:37:02;;;;;;;5.83;5.73;;;;;;;-142.65;100.00;50170.78;5114534;28;20196;-69
2022/10/22 03:39:32;;;;;;;5.70;5.53;;;;;;;-142.65;100.00;50168.78;5113984;28;20263;-69
2022/10/22 03:41:59;;;;;;;10.13;6.17;;;;;;;-142.65;100.00;50170.78;5113111;28;20209;-69
2022/10/22 03:44:26;;;;;;;6.50;6.30;;;;;;;-142.65;100.00;50168.78;5111747;28;20673;-68
2022/10/22 03:46:53;;;;;;;6.17;5.93;;;;;;;-142.65;100.00;50168.78;5111308;28;20643;-69
2022/10/22 03:49:25;;;;;;;6.10;5.70;;;;;;;-142.65;100.00;50164.81;5113225;28;20193;-69
2022/10/22 03:51:51;;;;;;;7.63;5.83;;;;;;;-142.65;100.00;50170.78;5114295;28;20212;-68
2022/10/22 03:54:18;;;;;;;5.20;5.00;;;;;;;-142.65;100.00;50174.75;5112488;28;20213;-69
2022/10/22 03:56:44;;;;;;;6.30;4.87;;;;;;;;;;5113586;28;20199;-69
2022/10/22 03:59:12;;;;;;;4.97;4.80;;;;;;;-142.65;100.00;50170.78;5114395;28;20193;-69
2022/10/22 04:01:38;;;;;;;4.73;4.63;;;;;;;;;;5114010;28;20213;-69
2022/10/22 04:04:04;;;;;;;7.27;6.93;;;;;;;-142.65;100.00;50172.78;5113686;28;20189;-69
2022/10/22 04:06:30;;;;;;;7.23;6.83;;;;;;;;;;5114300;28;20181;-68
2022/10/22 04:08:58;;;;;;;7.00;6.57;;;;;;;-142.65;100.00;50162.81;5113955;28;20189;-68
2022/10/22 04:11:24;;;;;;;8.13;6.50;;;;;;;;;;5113871;28;20235;-68
2022/10/22 04:13:50;;;;;;;7.47;6.87;;;;;;;-142.65;100.00;50170.78;5112672;28;20221;-69
2022/10/22 04:16:21;;;;;;;7.60;6.47;;;;;;;-142.65;100.00;50164.81;5112762;28;20189;-68
2022/10/22 04:18:51;;;;;;;9.03;6.97;;;;;;;-142.65;100.00;50162.81;5114453;28;20183;-68
2022/10/22 04:21:18;;;;;;;6.77;6.17;;;;;;;-142.65;100.00;50164.81;5095543;28;20213;-68
2022/10/22 04:23:50;;;;;;;7.17;6.57;;;;;;;-142.65;100.00;50172.78;5113512;28;20654;-69
2022/10/22 04:26:18;;;;;;;6.33;6.13;;;;;;;-142.65;100.00;50170.78;5113085;28;20189;-68
2022/10/22 04:28:44;;;;;;;6.47;6.27;;;;;;;;;;5113715;28;20189;-68
2022/10/22 04:31:15;;;;;;;7.70;7.20;;;;;;;;;;5113656;28;20219;-68
2022/10/22 04:33:41;;;;;;;8.50;7.90;;;;;;;;;;5111975;28;20208;-68
2022/10/22 04:36:16;;;;;;;6.80;6.60;;;;;;;-142.65;100.00;50118.97;5113690;28;20181;-68
2022/10/22 04:38:43;;;;;;;6.73;6.53;;;;;;;;;;5113670;28;20181;-68
2022/10/22 04:41:18;;;;;;;5.77;5.50;;;;;;;-142.65;100.00;50164.81;5113563;28;20213;-68
2022/10/22 04:43:45;;;;;;;7.40;6.90;;;;;;;-142.65;100.00;50170.78;5112713;28;20208;-68
2022/10/22 04:46:13;;;;;;;10.37;7.77;;;;;;;-142.65;100.00;50170.78;5113843;28;20662;-68
2022/10/22 04:48:41;;;;;;;7.47;7.17;;;;;;;-142.65;100.00;50168.78;5111615;28;20705;-68
2022/10/22 04:51:10;;;;;;;10.27;9.77;;;;;;;-142.65;100.00;50164.81;5115618;28;20223;-69
2022/10/22 04:53:36;;;;;;;8.47;7.77;;;;;;;;;;5117789;28;20204;-68
2022/10/22 04:56:07;;;;;;;9.50;9.00;;;;;;;;;;5117636;28;20579;-68
2022/10/22 04:58:33;;;;;;;9.47;8.83;;;;;;;;;;5116737;28;20212;-69
2022/10/22 05:00:59;;;;;;;10.40;9.13;;;;;;;-142.65;100.00;50170.78;5117419;28;20216;-69
2022/10/22 05:03:26;;;;;;;9.67;8.87;;;;;;;-142.65;100.00;50168.78;5117462;28;20647;-69
2022/10/22 05:05:52;;;;;;;7.80;7.27;;;;;;;-142.65;100.00;50162.81;5117440;28;20200;-69
2022/10/22 05:08:18;;;;;;;8.77;8.13;;;;;;;-142.65;100.00;50168.78;5116438;28;20204;-69
2022/10/22 05:10:45;;;;;;;9.80;7.77;;;;;;;-142.65;100.00;50168.78;5117524;28;20208;-69
2022/10/22 05:13:11;;;;;;;9.67;9.07;;;;;;;-142.65;100.00;50164.81;5117044;28;20185;-69
2022/10/22 05:15:37;;;;;;;11.13;8.10;;;;;;;-142.65;100.00;50118.97;5118108;28;20523;-68
2022/10/22 05:18:04;;;;;;;8.77;7.97;;;;;;;-142.65;100.00;50164.81;5116179;28;20181;-69
2022/10/22 05:20:30;;;;;;;8.90;7.87;;;;;;;-142.65;100.00;50168.78;5117085;28;20204;-69
2022/10/22 05:22:56;;;;;;;10.03;8.73;;;;;;;-142.65;100.00;50164.81;5117389;28;20671;-69
2022/10/22 05:25:23;;;;;;;8.67;7.80;;;;;;;-142.65;100.00;50168.78;5117017;28;20184;-69
2022/10/22 05:27:49;;;;;;;9.70;9.03;;;;;;;-142.65;100.00;50170.78;5117010;28;20528;-69
2022/10/22 05:30:15;;;;;;;9.27;8.57;;;;;;;-142.65;100.00;50164.81;5115407;28;20193;-69
2022/10/22 05:32:42;;;;;;;8.27;7.87;;;;;;;-142.65;100.00;50162.81;5116386;28;20193;-69
2022/10/22 05:35:08;;;;;;;8.17;7.77;;;;;;;;;;5116798;28;20205;-69
2022/10/22 05:37:34;;;;;;;8.77;8.00;;;;;;;-142.65;100.00;50174.75;5116824;28;20188;-69
2022/10/22 05:40:01;;;;;;;9.20;8.27;;;;;;;-142.65;100.00;50170.78;5115888;28;20185;-69
2022/10/22 05:42:47;;;;;;;21.87;8.80;;;;;;;;;;5117327;28;20557;-69
2022/10/22 05:45:13;;;;;;;7.57;7.23;;;;;;;-142.65;100.00;50170.78;5116990;28;20193;-68
2022/10/22 05:47:40;;;;;;;8.23;7.47;;;;;;;-142.65;100.00;50174.75;5117125;28;20193;-68
2022/10/22 05:50:06;;;;;;;13.00;8.67;;;;;;;-142.65;100.00;50164.81;5115719;28;20204;-69
2022/10/22 05:52:33;;;;;;;8.70;8.13;;;;;;;-142.65;100.00;50164.81;5115973;28;20200;-68
2022/10/22 05:54:59;;;;;;;10.07;8.13;;;;;;;-142.65;100.00;50170.78;5116404;28;20213;-68
2022/10/22 05:57:25;;;;;;;24.67;7.63;;;;;;;-142.65;100.00;50174.75;5116743;28;20188;-68
2022/10/22 05:59:52;;;;;;;9.60;7.37;;;;;;;;;;5115537;28;20272;-68
2022/10/22 06:02:18;;;;;;;7.63;7.43;;;;;;;-142.65;100.00;50164.81;5115374;28;20209;-68
2022/10/22 06:04:44;;;;;;;8.00;7.30;;;;;;;-142.65;100.00;50174.75;5116532;28;20189;-68
2022/10/22 06:07:14;;;;;;;7.53;6.87;;;;;;;-142.65;100.00;50164.81;5116254;28;20200;-68
2022/10/22 06:09:41;;;;;;;7.83;7.10;;;;;;;;;;5115509;28;20193;-68
2022/10/22 06:12:09;;;;;;;6.87;6.50;;;;;;;-142.65;100.00;50168.78;5116323;28;20217;-68
2022/10/22 06:14:36;;;;;;;7.23;6.47;;;;;;;-142.65;100.00;50117.00;5116251;28;20216;-68
2022/10/22 06:17:02;;;;;;;6.67;6.47;;;;;;;;;;5113381;28;20542;-68
2022/10/22 06:19:30;;;;;;;7.27;6.90;;;;;;;-142.65;100.00;50164.81;5116440;28;20180;-68
2022/10/22 06:21:56;;;;;;;6.40;6.10;;;;;;;-142.65;100.00;50164.81;5114207;28;20213;-68
2022/10/22 06:24:22;;;;;;;6.63;6.10;;;;;;;-142.65;100.00;50164.81;5116243;28;20170;-68
2022/10/22 06:26:50;;;;;;;6.60;6.27;;;;;;;-142.65;100.00;50162.81;5116051;28;20194;-69
2022/10/22 06:29:16;;;;;;;5.67;5.23;;;;;;;-142.65;100.00;50162.81;5112512;28;20553;-68
2022/10/22 06:31:43;;;;;;;7.70;7.20;;;;;;;-142.65;100.00;50164.81;5115741;28;20213;-68
2022/10/22 06:34:12;;;;;;;7.40;6.67;;;;;;;-142.65;100.00;50118.97;5115650;28;20205;-68
2022/10/22 06:36:42;;;;;;;7.77;7.13;;;;;;;-142.65;100.00;50168.78;5115633;28;20182;-68
2022/10/22 06:39:14;;;;;;;11.63;7.00;;;;;;;-142.65;100.00;50162.81;5114554;28;20189;-69
2022/10/22 06:41:41;;;;;;;8.37;7.67;;;;;;;-142.65;100.00;50118.97;5115773;28;20699;-68
2022/10/22 06:44:13;;;;;;;7.23;6.83;;;;;;;-142.65;100.00;50162.81;5115558;28;20182;-68
2022/10/22 06:46:39;;;;;;;7.60;7.03;;;;;;;-142.65;100.00;50162.81;5115513;28;20180;-68
2022/10/22 06:49:12;;;;;;;7.27;6.30;;;;;;;-142.65;100.00;50170.78;5113253;28;20197;-68
2022/10/22 06:51:39;;;;;;;15.37;6.60;;;;;;;-142.65;100.00;50162.81;5115323;28;20209;-68
2022/10/22 06:54:06;;;;;;;8.80;6.90;;;;;;;-142.65;100.00;50168.78;5113105;28;20702;-68
2022/10/22 06:56:32;;;;;;;7.03;6.40;;;;;;;-142.65;100.00;50162.81;5115269;28;20185;-68
2022/10/22 06:58:58;;;;;;;12.40;6.10;;;;;;;-142.65;100.00;50164.81;5113210;28;20189;-69
2022/10/22 07:01:29;;;;;;;12.70;6.80;;;;;;;-142.65;100.00;50164.81;5115131;28;20205;-68
2022/10/22 07:03:56;;;;;;;6.27;5.80;;;;;;;;;;5115467;28;20192;-68
2022/10/22 07:06:24;;;;;;;9.80;6.50;;;;;;;-142.65;100.00;50164.81;5114952;28;20185;-68
2022/10/22 07:08:52;;;;;;;6.60;6.13;;;;;;;-142.65;100.00;50162.81;5112369;28;20207;-69
2022/10/22 07:11:21;;;;;;;6.93;6.43;;;;;;;-142.65;100.00;50170.78;5114960;28;20224;-69
2022/10/22 07:13:48;;;;;;;6.53;5.93;;;;;;;-142.65;100.00;50164.81;5114639;28;20221;-69
2022/10/22 07:16:16;;;;;;;6.87;6.13;;;;;;;-142.65;100.00;50164.81;5115392;28;20196;-69
2022/10/22 07:18:44;;;;;;;7.33;6.13;;;;;;;-142.65;100.00;50164.81;5114529;28;20279;-70
2022/10/22 07:21:11;;;;;;;7.50;6.17;;;;;;;;;;5094410;28;20614;-69
2022/10/22 07:23:37;;;;;;;7.97;5.80;;;;;;;-142.65;100.00;50168.78;5095400;28;20587;-69
2022/10/22 07:26:06;;;;;;;7.70;6.23;;;;;;;-142.65;100.00;50164.81;5094570;28;20190;-69
2022/10/22 07:28:40;;;;;;;9.70;5.60;;;;;;;-142.65;100.00;50164.81;5106970;28;20189;-69
2022/10/22 07:31:06;;;;;;;5.27;5.07;;;;;;;;;;5114004;28;20236;-69
2022/10/22 07:33:34;;;;;;;15.70;5.40;;;;;;;-142.65;99.16;50170.78;5114561;28;20193;-69
2022/10/22 07:36:01;;;;;;;7.43;5.00;;;;;;;;;;5114422;28;20205;-69
2022/10/22 07:38:30;;;;;;;7.40;5.07;;;;;;;-142.65;97.40;50101.06;5113597;28;20196;-69
2022/10/22 07:40:57;;;;;;;5.90;5.43;;;;;;;-142.65;96.86;50162.81;5114340;28;20674;-69
2022/10/22 07:43:24;;;;;;;9.47;4.47;;;;;;;;;;5114427;28;20268;-69
2022/10/22 07:45:50;;;;;;;6.33;4.70;;;;;;;-142.65;95.49;50164.81;5112620;28;20635;-69
2022/10/22 07:48:16;;;;;;;9.53;4.37;;;;;;;-142.65;95.41;50162.81;5114555;28;20181;-69
2022/10/22 07:50:43;;;;;;;5.50;4.00;;;;;;;-142.65;94.12;50164.81;5114641;28;20201;-69
2022/10/22 07:53:14;;;;;;;15.50;4.27;;;;;;;-142.65;92.92;50164.81;5114513;28;20205;-69
2022/10/22 07:55:41;;;;;;;13.23;3.87;;;;;;;;;;5113213;28;20690;-68
2022/10/22 07:58:07;;;;;;;4.13;3.87;;;;;;;-142.65;92.73;50162.81;5112961;28;20186;-69
2022/10/22 08:00:34;;;;;;;4.00;3.70;;;;;;;-142.65;92.72;50164.81;5114308;28;20545;-69
2022/10/22 08:03:00;;;;;;;4.00;3.73;;;;;;;-142.65;92.72;50101.06;5113365;28;20193;-69
2022/10/22 08:05:26;;;;;;;3.83;3.73;;;;;;;-142.65;91.61;50162.81;5113986;28;20609;-69
2022/10/22 08:07:53;;;;;;;3.87;3.70;;;;;;;;;;5113986;28;20256;-68
2022/10/22 08:10:19;;;;;;;3.77;2.97;;;;;;;-142.65;90.79;50162.81;5114342;28;20185;-69
2022/10/22 08:12:46;;;;;;;3.77;3.20;;;;;;;-142.65;91.58;50164.81;5112252;28;20558;-69
2022/10/22 08:15:12;;;;;;;5.10;4.80;;;;;;;;;;5112900;28;20227;-69
2022/10/22 08:17:38;;;;;;;5.60;3.63;;;;;;;;;;5114154;28;20185;-69
2022/10/22 08:20:06;;;;;;;3.60;3.50;;;;;;;-142.65;91.30;50164.81;5113739;28;20700;-69
2022/10/22 08:22:32;;;;;;;3.27;3.17;;;;;;;-142.65;90.54;50162.81;5114133;28;20619;-69
2022/10/22 08:24:59;;;;;;;4.00;3.80;;;;;;;-142.65;89.71;50162.81;5111260;28;20185;-69
2022/10/22 08:27:25;;;;;;;6.27;3.07;;;;;;;-142.65;88.88;50118.97;5114039;28;20204;-68
2022/10/22 08:29:52;;;;;;;6.67;3.00;;;;;;;-142.65;88.18;50162.81;5113749;28;20191;-68
2022/10/22 08:32:20;;;;;;;3.77;3.00;;;;;;;-142.65;88.58;50162.81;5113659;28;20205;-68
2022/10/22 08:34:46;;;;;;;4.27;3.77;;;;;;;;;;5111893;28;20197;-68
2022/10/22 08:37:13;;;;;;;6.20;3.13;;;;;;;-142.65;88.27;50117.00;5113675;28;20671;-68
2022/10/22 08:39:40;;;;;;;3.40;3.10;;;;;;;-142.65;88.01;50168.78;5113908;28;20181;-68
2022/10/22 08:42:25;;;;;;;3.43;3.07;;;;;;;-142.65;88.25;50164.81;5113538;28;20205;-68
2022/10/22 08:45:18;;;;;;;5.43;3.50;;;;;;;-142.65;87.53;50162.81;5112984;28;20272;-69
2022/10/22 08:48:15;;;;;;;7.03;3.13;;;;;;;-142.65;87.63;50170.78;5114111;28;20600;-68
2022/10/22 08:50:48;;;;;;;2.97;2.97;;;;;;;-142.65;87.88;50168.78;5113714;28;20197;-68
2022/10/22 08:53:18;;;;;;;15.23;4.40;;;;;;;-142.65;87.21;50101.06;5113807;28;20531;-68
2022/10/22 08:55:45;;;;;;;3.03;2.60;;;;;;;;;;5112549;28;20211;-68
2022/10/22 08:58:39;;;;;;;3.40;3.20;;;;;;;-142.65;86.59;50160.81;5113742;28;20195;-68
2022/10/22 09:01:13;;;;;;;3.53;3.23;;;;;;;-142.65;85.54;50162.81;5113369;28;20209;-68
2022/10/22 09:03:56;;;;;;;3.33;3.07;;;;;;;-142.65;85.38;50164.81;5113673;28;20173;-68
2022/10/22 09:06:25;;;;;;;3.80;2.90;;;;;;;-142.65;85.84;50160.81;5093334;28;20188;-68
2022/10/22 09:08:53;;;;;;;5.77;2.90;;;;;;;-142.65;86.31;50160.81;5093246;28;20182;-68
2022/10/22 09:11:22;;;;;;;5.53;3.30;;;;;;;;;;5092876;28;20212;-68
2022/10/22 09:13:50;;;;;;;3.60;2.70;;;;;;;-142.65;85.74;50101.06;5092901;28;20656;-68
2022/10/22 09:16:35;;;;;;;3.60;3.20;;;;;;;-142.65;85.55;50162.81;5111672;28;20691;-68
2022/10/22 09:19:27;;;;;;;4.83;2.60;;;;;;;;;;5113858;28;20177;-68
2022/10/22 09:22:22;;;;;;;4.47;3.20;;;;;;;-142.65;85.29;50164.81;5114101;28;20197;-68
2022/10/22 09:24:53;;;;;;;2.57;2.47;;;;;;;;;;5082074;28;20197;-68
2022/10/22 09:27:24;;;;;;;3.00;3.00;;;;;;;-142.65;85.67;50162.81;5111379;28;20199;-68
2022/10/22 09:29:51;;;;;;;2.87;2.77;;;;;;;;;;5113418;28;20180;-68
2022/10/22 09:32:17;;;;;;;4.57;3.00;;;;;;;-142.65;85.81;50164.81;5113111;28;20205;-68
2022/10/22 09:34:48;;;;;;;3.50;2.97;;;;;;;-142.65;85.29;50162.81;5112225;28;20696;-68
2022/10/22 09:37:23;;;;;;;3.07;2.80;;;;;;;-142.65;84.60;50101.06;5114501;28;20531;-68
2022/10/22 09:39:51;;;;;;;4.23;2.87;;;;;;;;;;5117061;28;20187;-68
2022/10/22 09:42:19;;;;;;;8.30;2.90;;;;;;;-142.65;85.19;50162.81;5116638;28;20207;-68
2022/10/22 09:45:06;;;;;;;2.70;2.50;;;;;;;-142.65;83.97;50162.81;5115359;28;20185;-68
2022/10/22 09:47:40;;;;;;;4.40;2.70;;;;;;;-142.65;84.16;50164.81;5115142;28;20197;-68
2022/10/22 09:50:45;;;;;;;12.90;2.60;;;;;;;-142.65;84.36;50101.06;5116704;28;20206;-68
2022/10/22 09:53:18;;;;;;;8.33;3.03;;;;;;;-142.65;83.84;50162.81;5116801;28;20185;-68
2022/10/22 09:55:50;;;;;;;11.30;2.50;;;;;;;-142.65;83.92;50164.81;5115905;28;20212;-68
2022/10/22 09:58:18;;;;;;;5.13;2.73;;;;;;;-142.65;84.30;50164.81;5116414;28;20188;-68
2022/10/22 10:00:47;;;;;;;4.53;2.90;;;;;;;;;;5116543;28;20229;-68
2022/10/22 10:03:25;;;;;;;4.67;2.50;;;;;;;;;;5116259;28;20181;-68
2022/10/22 10:05:53;;;;;;;4.93;2.30;;;;;;;;;;5114998;28;20185;-68
2022/10/22 10:08:22;;;;;;;8.53;2.73;;;;;;;-142.65;82.75;50162.81;5115399;28;20181;-68
2022/10/22 10:10:54;;;;;;;2.53;2.53;;;;;;;;;;5116374;28;20208;-68
2022/10/22 10:13:37;;;;;;;3.30;3.00;;;;;;;-142.65;83.38;50164.81;5116224;28;20686;-68
2022/10/22 10:16:12;;;;;;;5.13;2.70;;;;;;;-142.65;82.39;50162.81;5116597;28;20280;-68
2022/10/22 10:19:04;;;;;;;3.07;2.10;;;;;;;-142.65;82.00;50162.81;5116601;28;20609;-68
2022/10/22 10:21:57;;;;;;;2.70;2.53;;;;;;;-142.65;82.27;50162.81;5069092;28;20231;-68
2022/10/22 10:24:33;;;;;;;8.03;2.57;;;;;;;-142.65;81.85;50162.81;5116692;28;20173;-68
2022/10/22 10:27:11;;;;;;;2.97;2.73;;;;;;;-142.65;82.15;50162.81;5116467;28;20177;-68
2022/10/22 10:30:00;;;;;;;2.53;2.33;;;;;;;-142.65;82.65;50162.81;5115818;28;20188;-68
2022/10/22 10:32:33;;;;;;;2.43;2.23;;;;;;;-142.65;81.80;50164.81;5115968;28;20209;-68
2022/10/22 10:35:20;;;;;;;4.77;2.63;;;;;;;-142.65;81.11;50162.81;5115597;28;20215;-68
2022/10/22 10:38:16;;;;;;;1.67;1.67;;;;;;;-142.65;80.85;50164.81;5116010;28;20188;-68
2022/10/22 10:41:01;;;;;;;3.03;2.50;;;;;;;-142.65;81.54;50164.81;5116103;28;20212;-68
2022/10/22 10:43:50;;;;;;;2.60;2.50;;;;;;;-142.65;81.17;50168.78;5116120;28;20234;-68
2022/10/22 10:46:34;;;;;;;2.27;2.03;;;;;;;-142.65;81.22;50164.81;5115488;28;20216;-68
2022/10/22 10:49:09;;;;;;;4.33;2.23;;;;;;;;;;5114939;28;20183;-68
2022/10/22 10:51:50;;;;;;;2.50;2.40;;;;;;;;;;5115339;28;20209;-68
2022/10/22 10:54:38;;;;;;;2.20;2.10;;;;;;;-142.65;80.38;50164.81;5115374;28;20265;-68
2022/10/22 10:57:30;;;;;;;2.13;2.07;;;;;;;-142.65;80.99;50162.81;5115610;28;20205;-68
2022/10/22 11:00:00;;;;;;;2.17;2.17;;;;;;;;;;5115536;28;20177;-68
2022/10/22 11:02:47;;;;;;;2.53;2.33;;;;;;;-142.65;81.12;50162.81;5116000;28;20215;-68
2022/10/22 11:05:27;;;;;;;2.70;2.57;;;;;;;-142.65;80.76;50164.81;5115196;28;20584;-68
2022/10/22 11:07:56;;;;;;;5.50;2.70;;;;;;;;;;5115105;28;20248;-68
2022/10/22 11:10:40;;;;;;;3.90;2.47;;;;;;;-142.65;80.25;50162.81;5114986;28;20702;-68
2022/10/22 11:13:27;;;;;;;2.60;2.40;;;;;;;-142.65;79.83;50118.97;5115186;28;20184;-68
2022/10/22 11:16:03;;;;;;;2.00;1.90;;;;;;;-142.65;80.96;50162.81;5114867;28;20264;-68
2022/10/22 11:18:39;;;;;;;2.30;2.20;;;;;;;-142.65;80.50;50164.81;5114915;28;20256;-68
2022/10/22 11:21:09;;;;;;;2.97;2.87;;;;;;;;;;5115130;28;20208;-68
2022/10/22 11:23:43;;;;;;;5.20;2.80;;;;;;;-142.65;80.46;50162.81;5114775;28;20670;-68
2022/10/22 11:26:18;;;;;;;2.03;2.03;;;;;;;-142.65;80.77;50101.06;5114890;28;20625;-68
2022/10/22 11:28:52;;;;;;;2.13;2.10;;;;;;;-142.65;80.81;50162.81;5115243;28;20200;-68
2022/10/22 11:31:24;;;;;;;2.37;2.37;;;;;;;-142.65;80.02;50101.06;5115063;28;20587;-68
2022/10/22 11:34:19;;;;;;;1.90;1.87;;;;;;;-142.65;80.80;50162.81;5114834;28;20212;-68
2022/10/22 11:37:03;;;;;;;4.57;2.67;;;;;;;-142.65;79.65;50168.78;5114843;28;20199;-68
2022/10/22 11:39:51;;;;;;;2.37;2.27;;;;;;;-142.65;79.59;50162.81;5114655;28;20189;-68
2022/10/22 11:42:19;;;;;;;4.73;1.80;;;;;;;-142.65;80.05;50164.81;5114382;28;20224;-68
2022/10/22 11:44:48;;;;;;;4.03;2.00;;;;;;;-142.65;80.00;50162.81;5114383;28;20191;-68
2022/10/22 11:47:22;;;;;;;4.37;2.47;;;;;;;-142.65;79.13;50170.78;5114348;28;20182;-68
2022/10/22 11:50:21;;;;;;;2.27;2.17;;;;;;;-142.65;78.50;50164.81;5114285;28;20276;-68
2022/10/22 11:53:04;;;;;;;11.47;2.40;;;;;;;-142.65;79.04;50162.81;5114777;28;20208;-68
2022/10/22 11:55:54;;;;;;;1.77;1.77;;;;;;;-142.65;78.85;50170.78;5114416;28;20685;-68
2022/10/22 11:58:32;;;;;;;4.30;2.17;;;;;;;-142.65;79.09;50162.81;5114100;28;20174;-68
2022/10/22 12:01:08;;;;;;;5.30;2.33;;;;;;;;;;5113513;28;20292;-68
2022/10/22 12:03:42;;;;;;;2.47;2.47;;;;;;;-142.65;79.59;50162.81;5114558;28;20677;-68
2022/10/22 12:06:19;;;;;;;2.87;2.33;;;;;;;-142.65;79.48;50164.81;5114061;28;20698;-68
2022/10/22 12:08:51;;;;;;;5.73;2.10;;;;;;;-142.65;79.06;50164.81;5114020;28;20177;-68
2022/10/22 12:11:35;;;;;;;2.20;2.10;;;;;;;-142.65;79.04;50164.81;5114270;28;20213;-68
2022/10/22 12:14:04;;;;;;;1.83;1.83;;;;;;;;;;5113997;28;20197;-68
2022/10/22 12:16:31;;;;;;;3.90;1.87;;;;;;;-142.65;78.58;50162.81;5113760;28;20208;-68